sensor_id;sensor_type;location;lat;lon;timestamp;P1;durP1;ratioP1;P2;durP2;ratioP2
36241;SDS011;22283;42.748;12.732;2023-09-19T00:01:22;12.88;;;5.15;;
36241;SDS011;22283;42.748;12.732;2023-09-19T00:06:24;16.13;;;4.10;;
36241;SDS011;22283;42.748;12.732;2023-09-19T00:11:26;12.25;;;4.35;;
36241;SDS011;22283;42.748;12.732;2023-09-19T00:16:27;15.10;;;4.40;;
36241;SDS011;22283;42.748;12.732;2023-09-19T00:21:27;12.60;;;4.15;;
36241;SDS011;22283;42.748;12.732;2023-09-19T00:31:31;18.10;;;4.35;;
36241;SDS011;22283;42.748;12.732;2023-09-19T00:41:34;12.55;;;4.28;;
36241;SDS011;22283;42.748;12.732;2023-09-19T00:46:36;15.90;;;4.15;;
36241;SDS011;22283;42.748;12.732;2023-09-19T00:51:37;18.25;;;5.00;;
36241;SDS011;22283;42.748;12.732;2023-09-19T00:56:39;8.30;;;3.55;;
36241;SDS011;22283;42.748;12.732;2023-09-19T01:01:41;18.92;;;4.18;;
36241;SDS011;22283;42.748;12.732;2023-09-19T01:06:42;18.30;;;5.32;;
36241;SDS011;22283;42.748;12.732;2023-09-19T01:11:45;14.55;;;4.60;;
36241;SDS011;22283;42.748;12.732;2023-09-19T01:16:50;16.33;;;4.28;;
36241;SDS011;22283;42.748;12.732;2023-09-19T01:22:17;19.65;;;5.20;;
36241;SDS011;22283;42.748;12.732;2023-09-19T01:33:09;11.80;;;3.80;;
36241;SDS011;22283;42.748;12.732;2023-09-19T01:38:14;14.60;;;4.75;;
36241;SDS011;22283;42.748;12.732;2023-09-19T01:43:27;15.10;;;3.55;;
36241;SDS011;22283;42.748;12.732;2023-09-19T01:48:46;14.52;;;5.00;;
36241;SDS011;22283;42.748;12.732;2023-09-19T01:53:55;15.90;;;4.20;;
36241;SDS011;22283;42.748;12.732;2023-09-19T01:59:07;16.20;;;4.07;;
36241;SDS011;22283;42.748;12.732;2023-09-19T02:04:12;15.55;;;4.65;;
36241;SDS011;22283;42.748;12.732;2023-09-19T02:09:13;18.10;;;5.10;;
36241;SDS011;22283;42.748;12.732;2023-09-19T02:14:14;13.55;;;3.65;;
36241;SDS011;22283;42.748;12.732;2023-09-19T02:19:15;13.82;;;4.25;;
36241;SDS011;22283;42.748;12.732;2023-09-19T02:24:16;14.05;;;5.10;;
36241;SDS011;22283;42.748;12.732;2023-09-19T02:29:17;20.00;;;6.03;;
36241;SDS011;22283;42.748;12.732;2023-09-19T02:34:17;18.45;;;6.10;;
36241;SDS011;22283;42.748;12.732;2023-09-19T02:39:18;14.98;;;5.20;;
36241;SDS011;22283;42.748;12.732;2023-09-19T02:49:20;12.60;;;4.65;;
36241;SDS011;22283;42.748;12.732;2023-09-19T02:54:21;17.85;;;5.05;;
36241;SDS011;22283;42.748;12.732;2023-09-19T02:59:22;17.40;;;3.67;;
36241;SDS011;22283;42.748;12.732;2023-09-19T03:09:24;11.88;;;4.03;;
36241;SDS011;22283;42.748;12.732;2023-09-19T03:14:24;12.43;;;3.80;;
36241;SDS011;22283;42.748;12.732;2023-09-19T03:19:25;11.38;;;3.70;;
36241;SDS011;22283;42.748;12.732;2023-09-19T03:24:27;14.63;;;3.58;;
36241;SDS011;22283;42.748;12.732;2023-09-19T03:29:30;13.43;;;4.03;;
36241;SDS011;22283;42.748;12.732;2023-09-19T03:34:33;19.90;;;4.60;;
36241;SDS011;22283;42.748;12.732;2023-09-19T03:44:34;12.52;;;4.15;;
36241;SDS011;22283;42.748;12.732;2023-09-19T03:49:35;17.85;;;3.65;;
36241;SDS011;22283;42.748;12.732;2023-09-19T03:54:37;14.35;;;3.83;;
36241;SDS011;22283;42.748;12.732;2023-09-19T03:59:38;15.02;;;3.78;;
36241;SDS011;22283;42.748;12.732;2023-09-19T04:04:38;20.33;;;4.43;;
36241;SDS011;22283;42.748;12.732;2023-09-19T04:09:39;13.23;;;3.38;;
36241;SDS011;22283;42.748;12.732;2023-09-19T04:14:39;25.63;;;4.22;;
36241;SDS011;22283;42.748;12.732;2023-09-19T04:19:40;15.80;;;4.22;;
36241;SDS011;22283;42.748;12.732;2023-09-19T04:24:42;15.90;;;4.10;;
36241;SDS011;22283;42.748;12.732;2023-09-19T04:29:43;13.32;;;3.55;;
36241;SDS011;22283;42.748;12.732;2023-09-19T04:39:44;13.02;;;3.17;;
36241;SDS011;22283;42.748;12.732;2023-09-19T04:44:47;21.70;;;4.10;;
36241;SDS011;22283;42.748;12.732;2023-09-19T04:49:49;12.27;;;3.78;;
36241;SDS011;22283;42.748;12.732;2023-09-19T04:59:50;12.55;;;3.72;;
36241;SDS011;22283;42.748;12.732;2023-09-19T05:09:51;12.80;;;3.75;;
36241;SDS011;22283;42.748;12.732;2023-09-19T05:19:52;16.60;;;4.35;;
36241;SDS011;22283;42.748;12.732;2023-09-19T05:29:54;13.32;;;3.78;;
36241;SDS011;22283;42.748;12.732;2023-09-19T05:34:56;16.58;;;4.22;;
36241;SDS011;22283;42.748;12.732;2023-09-19T05:44:57;15.85;;;4.05;;
36241;SDS011;22283;42.748;12.732;2023-09-19T05:49:58;17.05;;;4.50;;
36241;SDS011;22283;42.748;12.732;2023-09-19T05:54:59;12.10;;;3.42;;
36241;SDS011;22283;42.748;12.732;2023-09-19T06:00:00;22.08;;;5.50;;
36241;SDS011;22283;42.748;12.732;2023-09-19T06:05:01;16.02;;;3.50;;
36241;SDS011;22283;42.748;12.732;2023-09-19T06:10:03;24.88;;;4.90;;
36241;SDS011;22283;42.748;12.732;2023-09-19T06:15:10;32.63;;;5.55;;
36241;SDS011;22283;42.748;12.732;2023-09-19T06:20:23;29.35;;;7.25;;
36241;SDS011;22283;42.748;12.732;2023-09-19T06:25:25;23.63;;;4.72;;
36241;SDS011;22283;42.748;12.732;2023-09-19T06:30:27;21.85;;;5.05;;
36241;SDS011;22283;42.748;12.732;2023-09-19T06:35:30;16.00;;;4.45;;
36241;SDS011;22283;42.748;12.732;2023-09-19T06:40:36;16.70;;;4.85;;
36241;SDS011;22283;42.748;12.732;2023-09-19T06:45:36;22.42;;;4.35;;
36241;SDS011;22283;42.748;12.732;2023-09-19T06:50:37;19.38;;;4.93;;
36241;SDS011;22283;42.748;12.732;2023-09-19T06:55:38;16.95;;;4.13;;
36241;SDS011;22283;42.748;12.732;2023-09-19T07:00:39;19.50;;;4.22;;
36241;SDS011;22283;42.748;12.732;2023-09-19T07:05:40;17.70;;;4.15;;
36241;SDS011;22283;42.748;12.732;2023-09-19T07:10:41;17.48;;;4.18;;
36241;SDS011;22283;42.748;12.732;2023-09-19T07:15:48;15.27;;;3.83;;
36241;SDS011;22283;42.748;12.732;2023-09-19T07:20:50;18.60;;;3.67;;
36241;SDS011;22283;42.748;12.732;2023-09-19T07:25:50;15.55;;;4.22;;
36241;SDS011;22283;42.748;12.732;2023-09-19T07:30:51;19.38;;;3.70;;
36241;SDS011;22283;42.748;12.732;2023-09-19T07:35:52;17.95;;;4.30;;
36241;SDS011;22283;42.748;12.732;2023-09-19T07:40:59;13.80;;;3.47;;
36241;SDS011;22283;42.748;12.732;2023-09-19T07:46:06;21.40;;;5.03;;
36241;SDS011;22283;42.748;12.732;2023-09-19T07:51:11;12.00;;;3.72;;
36241;SDS011;22283;42.748;12.732;2023-09-19T07:56:12;17.88;;;4.00;;
36241;SDS011;22283;42.748;12.732;2023-09-19T08:01:13;24.20;;;4.18;;
36241;SDS011;22283;42.748;12.732;2023-09-19T08:06:15;12.50;;;3.67;;
36241;SDS011;22283;42.748;12.732;2023-09-19T08:11:17;24.88;;;4.25;;
36241;SDS011;22283;42.748;12.732;2023-09-19T08:16:21;15.45;;;3.83;;
36241;SDS011;22283;42.748;12.732;2023-09-19T08:21:22;13.38;;;3.78;;
36241;SDS011;22283;42.748;12.732;2023-09-19T08:26:24;17.00;;;3.72;;
36241;SDS011;22283;42.748;12.732;2023-09-19T08:31:25;18.13;;;3.53;;
36241;SDS011;22283;42.748;12.732;2023-09-19T08:36:26;14.35;;;3.45;;
36241;SDS011;22283;42.748;12.732;2023-09-19T08:41:27;17.92;;;4.20;;
36241;SDS011;22283;42.748;12.732;2023-09-19T08:46:28;16.33;;;4.07;;
36241;SDS011;22283;42.748;12.732;2023-09-19T08:51:33;11.63;;;3.88;;
36241;SDS011;22283;42.748;12.732;2023-09-19T08:56:44;19.52;;;4.22;;
36241;SDS011;22283;42.748;12.732;2023-09-19T09:01:47;19.20;;;4.20;;
36241;SDS011;22283;42.748;12.732;2023-09-19T09:06:48;18.70;;;3.95;;
36241;SDS011;22283;42.748;12.732;2023-09-19T09:11:53;18.80;;;4.13;;
36241;SDS011;22283;42.748;12.732;2023-09-19T09:16:57;13.45;;;3.75;;
36241;SDS011;22283;42.748;12.732;2023-09-19T09:22:08;26.50;;;4.63;;
36241;SDS011;22283;42.748;12.732;2023-09-19T09:27:10;22.08;;;5.35;;
36241;SDS011;22283;42.748;12.732;2023-09-19T09:32:19;23.27;;;6.20;;
36241;SDS011;22283;42.748;12.732;2023-09-19T09:37:22;23.58;;;4.75;;
36241;SDS011;22283;42.748;12.732;2023-09-19T09:42:28;24.15;;;6.40;;
36241;SDS011;22283;42.748;12.732;2023-09-19T09:47:45;20.58;;;4.10;;
36241;SDS011;22283;42.748;12.732;2023-09-19T09:52:58;15.10;;;5.13;;
36241;SDS011;22283;42.748;12.732;2023-09-19T09:58:16;20.25;;;4.20;;
36241;SDS011;22283;42.748;12.732;2023-09-19T10:03:21;28.05;;;5.70;;
36241;SDS011;22283;42.748;12.732;2023-09-19T10:08:23;17.40;;;4.95;;
36241;SDS011;22283;42.748;12.732;2023-09-19T10:13:23;24.85;;;5.22;;
36241;SDS011;22283;42.748;12.732;2023-09-19T10:18:29;23.40;;;4.90;;
36241;SDS011;22283;42.748;12.732;2023-09-19T10:23:33;21.08;;;4.63;;
36241;SDS011;22283;42.748;12.732;2023-09-19T10:28:35;16.30;;;5.03;;
36241;SDS011;22283;42.748;12.732;2023-09-19T10:33:38;29.60;;;5.47;;
36241;SDS011;22283;42.748;12.732;2023-09-19T10:38:42;28.92;;;5.60;;
36241;SDS011;22283;42.748;12.732;2023-09-19T10:43:44;20.90;;;4.90;;
36241;SDS011;22283;42.748;12.732;2023-09-19T10:48:48;16.15;;;5.10;;
36241;SDS011;22283;42.748;12.732;2023-09-19T10:53:52;18.42;;;4.35;;
36241;SDS011;22283;42.748;12.732;2023-09-19T10:59:10;21.83;;;5.03;;
36241;SDS011;22283;42.748;12.732;2023-09-19T11:04:32;19.25;;;5.15;;
36241;SDS011;22283;42.748;12.732;2023-09-19T11:09:51;21.50;;;4.88;;
36241;SDS011;22283;42.748;12.732;2023-09-19T11:14:53;16.92;;;4.63;;
36241;SDS011;22283;42.748;12.732;2023-09-19T11:25:41;19.90;;;6.22;;
36241;SDS011;22283;42.748;12.732;2023-09-19T11:30:39;15.77;;;5.03;;
36241;SDS011;22283;42.748;12.732;2023-09-19T11:51:52;18.08;;;5.80;;
36241;SDS011;22283;42.748;12.732;2023-09-19T11:56:53;18.10;;;4.95;;
36241;SDS011;22283;42.748;12.732;2023-09-19T12:01:57;20.40;;;5.15;;
36241;SDS011;22283;42.748;12.732;2023-09-19T12:07:01;15.07;;;4.72;;
36241;SDS011;22283;42.748;12.732;2023-09-19T12:12:02;27.92;;;6.18;;
36241;SDS011;22283;42.748;12.732;2023-09-19T12:17:02;47.00;;;6.47;;
36241;SDS011;22283;42.748;12.732;2023-09-19T12:22:03;27.92;;;6.13;;
36241;SDS011;22283;42.748;12.732;2023-09-19T12:27:05;16.08;;;4.35;;
36241;SDS011;22283;42.748;12.732;2023-09-19T12:32:06;13.85;;;4.90;;
36241;SDS011;22283;42.748;12.732;2023-09-19T12:37:14;19.98;;;5.28;;
36241;SDS011;22283;42.748;12.732;2023-09-19T12:42:23;18.00;;;4.78;;
36241;SDS011;22283;42.748;12.732;2023-09-19T12:47:25;13.75;;;4.57;;
36241;SDS011;22283;42.748;12.732;2023-09-19T12:52:25;21.00;;;5.55;;
36241;SDS011;22283;42.748;12.732;2023-09-19T12:57:26;20.08;;;4.70;;
36241;SDS011;22283;42.748;12.732;2023-09-19T13:02:27;16.75;;;4.57;;
36241;SDS011;22283;42.748;12.732;2023-09-19T13:07:44;23.55;;;4.78;;
36241;SDS011;22283;42.748;12.732;2023-09-19T13:12:49;14.63;;;4.90;;
36241;SDS011;22283;42.748;12.732;2023-09-19T13:17:50;14.38;;;5.20;;
36241;SDS011;22283;42.748;12.732;2023-09-19T13:22:51;13.95;;;4.65;;
36241;SDS011;22283;42.748;12.732;2023-09-19T13:27:58;28.80;;;4.55;;
36241;SDS011;22283;42.748;12.732;2023-09-19T13:33:09;18.23;;;5.20;;
36241;SDS011;22283;42.748;12.732;2023-09-19T13:38:10;22.77;;;4.20;;
36241;SDS011;22283;42.748;12.732;2023-09-19T13:43:11;14.45;;;3.92;;
36241;SDS011;22283;42.748;12.732;2023-09-19T13:48:12;14.88;;;4.68;;
36241;SDS011;22283;42.748;12.732;2023-09-19T13:53:13;13.52;;;3.67;;
36241;SDS011;22283;42.748;12.732;2023-09-19T13:58:14;22.75;;;4.50;;
36241;SDS011;22283;42.748;12.732;2023-09-19T14:03:14;15.63;;;4.68;;
36241;SDS011;22283;42.748;12.732;2023-09-19T14:08:15;14.63;;;4.93;;
36241;SDS011;22283;42.748;12.732;2023-09-19T14:13:16;16.05;;;4.57;;
36241;SDS011;22283;42.748;12.732;2023-09-19T14:18:16;15.52;;;4.28;;
36241;SDS011;22283;42.748;12.732;2023-09-19T14:23:18;18.02;;;5.00;;
36241;SDS011;22283;42.748;12.732;2023-09-19T14:28:19;17.00;;;4.95;;
36241;SDS011;22283;42.748;12.732;2023-09-19T14:33:19;11.57;;;3.53;;
36241;SDS011;22283;42.748;12.732;2023-09-19T14:38:20;9.88;;;3.50;;
36241;SDS011;22283;42.748;12.732;2023-09-19T14:43:21;13.13;;;3.45;;
36241;SDS011;22283;42.748;12.732;2023-09-19T14:48:21;15.65;;;3.70;;
36241;SDS011;22283;42.748;12.732;2023-09-19T14:53:25;16.40;;;4.43;;
36241;SDS011;22283;42.748;12.732;2023-09-19T14:58:28;14.23;;;4.45;;
36241;SDS011;22283;42.748;12.732;2023-09-19T15:03:31;22.55;;;4.65;;
36241;SDS011;22283;42.748;12.732;2023-09-19T15:08:36;19.83;;;4.70;;
36241;SDS011;22283;42.748;12.732;2023-09-19T15:13:40;19.30;;;4.80;;
36241;SDS011;22283;42.748;12.732;2023-09-19T15:18:43;14.45;;;3.65;;
36241;SDS011;22283;42.748;12.732;2023-09-19T15:23:47;24.70;;;4.72;;
36241;SDS011;22283;42.748;12.732;2023-09-19T15:28:48;13.82;;;4.00;;
36241;SDS011;22283;42.748;12.732;2023-09-19T15:33:49;15.40;;;3.60;;
36241;SDS011;22283;42.748;12.732;2023-09-19T15:39:00;32.05;;;4.38;;
36241;SDS011;22283;42.748;12.732;2023-09-19T15:44:11;25.20;;;4.90;;
36241;SDS011;22283;42.748;12.732;2023-09-19T15:49:15;22.27;;;4.68;;
36241;SDS011;22283;42.748;12.732;2023-09-19T15:54:16;14.38;;;4.68;;
36241;SDS011;22283;42.748;12.732;2023-09-19T15:59:17;25.80;;;5.07;;
36241;SDS011;22283;42.748;12.732;2023-09-19T16:04:18;14.55;;;5.10;;
36241;SDS011;22283;42.748;12.732;2023-09-19T16:09:19;13.02;;;4.18;;
36241;SDS011;22283;42.748;12.732;2023-09-19T16:14:20;23.08;;;5.15;;
36241;SDS011;22283;42.748;12.732;2023-09-19T16:19:20;18.20;;;4.38;;
36241;SDS011;22283;42.748;12.732;2023-09-19T16:24:21;19.15;;;4.47;;
36241;SDS011;22283;42.748;12.732;2023-09-19T16:29:22;16.23;;;4.50;;
36241;SDS011;22283;42.748;12.732;2023-09-19T16:34:24;18.52;;;5.60;;
36241;SDS011;22283;42.748;12.732;2023-09-19T16:39:26;12.98;;;5.10;;
36241;SDS011;22283;42.748;12.732;2023-09-19T16:44:26;21.02;;;5.18;;
36241;SDS011;22283;42.748;12.732;2023-09-19T16:49:29;19.92;;;4.88;;
36241;SDS011;22283;42.748;12.732;2023-09-19T16:54:30;25.35;;;6.03;;
36241;SDS011;22283;42.748;12.732;2023-09-19T16:59:30;24.88;;;5.57;;
36241;SDS011;22283;42.748;12.732;2023-09-19T17:04:31;20.30;;;6.13;;
36241;SDS011;22283;42.748;12.732;2023-09-19T17:09:32;21.52;;;5.65;;
36241;SDS011;22283;42.748;12.732;2023-09-19T17:14:35;20.27;;;5.93;;
36241;SDS011;22283;42.748;12.732;2023-09-19T17:19:36;17.15;;;6.22;;
36241;SDS011;22283;42.748;12.732;2023-09-19T17:24:37;15.25;;;5.90;;
36241;SDS011;22283;42.748;12.732;2023-09-19T17:29:37;18.42;;;5.57;;
36241;SDS011;22283;42.748;12.732;2023-09-19T17:34:38;23.00;;;5.78;;
36241;SDS011;22283;42.748;12.732;2023-09-19T17:39:38;20.13;;;5.95;;
36241;SDS011;22283;42.748;12.732;2023-09-19T17:44:39;26.08;;;7.18;;
36241;SDS011;22283;42.748;12.732;2023-09-19T17:49:40;19.58;;;5.78;;
36241;SDS011;22283;42.748;12.732;2023-09-19T17:54:43;23.40;;;6.25;;
36241;SDS011;22283;42.748;12.732;2023-09-19T17:59:44;18.02;;;5.80;;
36241;SDS011;22283;42.748;12.732;2023-09-19T18:04:45;20.80;;;6.70;;
36241;SDS011;22283;42.748;12.732;2023-09-19T18:09:46;23.45;;;6.15;;
36241;SDS011;22283;42.748;12.732;2023-09-19T18:14:47;16.70;;;5.75;;
36241;SDS011;22283;42.748;12.732;2023-09-19T18:19:48;19.67;;;5.70;;
36241;SDS011;22283;42.748;12.732;2023-09-19T18:24:49;21.33;;;6.55;;
36241;SDS011;22283;42.748;12.732;2023-09-19T18:29:50;12.13;;;5.50;;
36241;SDS011;22283;42.748;12.732;2023-09-19T18:34:51;19.38;;;5.22;;
36241;SDS011;22283;42.748;12.732;2023-09-19T18:39:52;20.75;;;6.22;;
36241;SDS011;22283;42.748;12.732;2023-09-19T18:44:53;16.27;;;5.85;;
36241;SDS011;22283;42.748;12.732;2023-09-19T18:49:53;21.52;;;5.60;;
36241;SDS011;22283;42.748;12.732;2023-09-19T18:54:55;17.70;;;5.97;;
36241;SDS011;22283;42.748;12.732;2023-09-19T18:59:56;22.63;;;5.43;;
36241;SDS011;22283;42.748;12.732;2023-09-19T19:04:56;18.20;;;4.88;;
36241;SDS011;22283;42.748;12.732;2023-09-19T19:09:58;17.58;;;5.18;;
36241;SDS011;22283;42.748;12.732;2023-09-19T19:14:59;21.15;;;6.93;;
36241;SDS011;22283;42.748;12.732;2023-09-19T19:20:01;18.70;;;5.55;;
36241;SDS011;22283;42.748;12.732;2023-09-19T19:25:03;19.90;;;5.63;;
36241;SDS011;22283;42.748;12.732;2023-09-19T19:30:09;23.15;;;5.50;;
36241;SDS011;22283;42.748;12.732;2023-09-19T19:35:11;16.45;;;5.13;;
36241;SDS011;22283;42.748;12.732;2023-09-19T19:40:13;23.92;;;5.45;;
36241;SDS011;22283;42.748;12.732;2023-09-19T19:45:13;20.83;;;5.72;;
36241;SDS011;22283;42.748;12.732;2023-09-19T19:50:15;22.45;;;4.90;;
36241;SDS011;22283;42.748;12.732;2023-09-19T19:55:17;29.02;;;6.65;;
36241;SDS011;22283;42.748;12.732;2023-09-19T20:00:18;21.52;;;6.15;;
36241;SDS011;22283;42.748;12.732;2023-09-19T20:05:20;22.00;;;6.20;;
36241;SDS011;22283;42.748;12.732;2023-09-19T20:10:21;19.13;;;5.85;;
36241;SDS011;22283;42.748;12.732;2023-09-19T20:15:22;19.92;;;6.05;;
36241;SDS011;22283;42.748;12.732;2023-09-19T20:20:25;19.30;;;5.22;;
36241;SDS011;22283;42.748;12.732;2023-09-19T20:25:27;43.58;;;7.75;;
36241;SDS011;22283;42.748;12.732;2023-09-19T20:30:28;14.88;;;5.68;;
36241;SDS011;22283;42.748;12.732;2023-09-19T20:35:29;21.60;;;7.40;;
36241;SDS011;22283;42.748;12.732;2023-09-19T20:40:29;19.27;;;6.47;;
36241;SDS011;22283;42.748;12.732;2023-09-19T20:45:31;16.38;;;6.57;;
36241;SDS011;22283;42.748;12.732;2023-09-19T20:50:33;17.77;;;6.28;;
36241;SDS011;22283;42.748;12.732;2023-09-19T20:55:34;15.45;;;5.60;;
36241;SDS011;22283;42.748;12.732;2023-09-19T21:00:40;22.10;;;5.20;;
36241;SDS011;22283;42.748;12.732;2023-09-19T21:05:42;19.05;;;5.88;;
36241;SDS011;22283;42.748;12.732;2023-09-19T21:10:42;16.20;;;7.03;;
36241;SDS011;22283;42.748;12.732;2023-09-19T21:20:43;23.60;;;6.38;;
36241;SDS011;22283;42.748;12.732;2023-09-19T21:25:52;25.25;;;5.72;;
36241;SDS011;22283;42.748;12.732;2023-09-19T21:31:17;16.50;;;5.85;;
36241;SDS011;22283;42.748;12.732;2023-09-19T21:36:17;23.17;;;6.18;;
36241;SDS011;22283;42.748;12.732;2023-09-19T21:41:22;16.52;;;5.50;;
36241;SDS011;22283;42.748;12.732;2023-09-19T21:51:23;20.77;;;6.28;;
36241;SDS011;22283;42.748;12.732;2023-09-19T22:01:24;17.55;;;6.80;;
36241;SDS011;22283;42.748;12.732;2023-09-19T22:11:26;17.40;;;6.22;;
36241;SDS011;22283;42.748;12.732;2023-09-19T22:21:28;21.27;;;6.93;;
36241;SDS011;22283;42.748;12.732;2023-09-19T22:26:37;20.48;;;6.05;;
36241;SDS011;22283;42.748;12.732;2023-09-19T22:31:40;14.95;;;5.75;;
36241;SDS011;22283;42.748;12.732;2023-09-19T22:36:42;21.80;;;7.10;;
36241;SDS011;22283;42.748;12.732;2023-09-19T22:41:44;21.25;;;5.88;;
36241;SDS011;22283;42.748;12.732;2023-09-19T22:46:46;18.80;;;7.05;;
36241;SDS011;22283;42.748;12.732;2023-09-19T22:51:49;17.25;;;7.03;;
36241;SDS011;22283;42.748;12.732;2023-09-19T22:56:51;17.33;;;6.05;;
36241;SDS011;22283;42.748;12.732;2023-09-19T23:01:52;16.30;;;5.20;;
36241;SDS011;22283;42.748;12.732;2023-09-19T23:06:53;14.32;;;5.65;;
36241;SDS011;22283;42.748;12.732;2023-09-19T23:11:58;19.00;;;5.32;;
36241;SDS011;22283;42.748;12.732;2023-09-19T23:17:07;18.38;;;5.78;;
36241;SDS011;22283;42.748;12.732;2023-09-19T23:22:22;14.20;;;4.82;;
36241;SDS011;22283;42.748;12.732;2023-09-19T23:27:23;12.90;;;5.07;;
36241;SDS011;22283;42.748;12.732;2023-09-19T23:32:33;19.77;;;5.90;;
36241;SDS011;22283;42.748;12.732;2023-09-19T23:37:35;27.70;;;5.68;;
36241;SDS011;22283;42.748;12.732;2023-09-19T23:42:36;24.02;;;5.45;;
36241;SDS011;22283;42.748;12.732;2023-09-19T23:47:36;16.58;;;5.75;;
36241;SDS011;22283;42.748;12.732;2023-09-19T23:52:38;18.30;;;5.57;;
36241;SDS011;22283;42.748;12.732;2023-09-19T23:57:39;12.93;;;6.00;;
